Terminal Aerodrome Forecast
Issued by NWS Omaha/Valley, NE

Home | Current Version | Previous Version | Text Only | Print | Product List | Glossary Off
Versions: 1 2 3 4 5 6 7 8 9 10 11 12 13 14 15 16 17 18 19 20 21 22 23 24 25 26 27 28 29 30 31 32 33 34 35 36 37 38 39

000
FTUS43 KOAX 182320
TAFOFK
TAF
KOFK 182320Z 1900/1924 19005KT P6SM OVC015
     FM190700 18005KT 6SM BR OVC011
      TEMPO 1910/1914 3SM BR OVC007
     FM191600 19008KT P6SM BKN015
     FM192000 19011KT P6SM BKN250=

USA.gov is the U.S. government's official web portal to all federal, state and local government web resources and services.